Time;durP1;ratioP1;P1;durP2;ratioP2;P2;SDS_P1;SDS_P2;PMS_P1;PMS_P2;Temp;Humidity;BMP_temperature;BMP_pressure;BME280_temperature;BME280_humidity;BME280_pressure;Samples;Min_cycle;Max_cycle;Signal;HPM_P1;HPM_P2
2022/06/02 00:00:14;;;;;;;8.27;4.50;;;11.90;99.90;;;;;;4980367;28;20038;-73
2022/06/02 00:03:04;;;;;;;7.57;4.05;;;11.90;99.90;;;;;;4980353;28;20023;-73
2022/06/02 00:05:53;;;;;;;5.90;4.20;;;11.80;99.90;;;;;;4981077;28;20023;-73
2022/06/02 00:08:46;;;;;;;7.10;4.68;;;11.80;99.90;;;;;;4980063;28;20026;-73
2022/06/02 00:11:36;;;;;;;5.82;4.07;;;11.80;99.90;;;;;;4981388;28;20026;-73
2022/06/02 00:14:29;;;;;;;5.17;3.80;;;11.70;99.90;;;;;;4982729;28;20069;-73
2022/06/02 00:17:17;;;;;;;6.80;3.92;;;11.70;99.90;;;;;;4980608;28;20372;-73
2022/06/02 00:19:50;;;;;;;4.50;3.80;;;11.60;99.90;;;;;;4976812;28;20027;-72
2022/06/02 00:22:30;;;;;;;5.50;4.28;;;11.50;99.90;;;;;;4984507;28;20026;-73
2022/06/02 00:25:23;;;;;;;5.45;3.92;;;11.50;99.90;;;;;;4980544;28;20372;-73
2022/06/02 00:28:13;;;;;;;5.10;4.00;;;11.50;99.90;;;;;;4976384;28;20911;-73
2022/06/02 00:30:48;;;;;;;6.05;4.38;;;11.40;99.90;;;;;;4964735;28;20025;-73
2022/06/02 00:33:25;;;;;;;5.15;4.20;;;11.40;99.90;;;;;;4982384;28;20034;-73
2022/06/02 00:36:17;;;;;;;6.88;4.88;;;11.40;99.90;;;;;;4972324;28;20041;-73
2022/06/02 00:38:43;;;;;;;5.97;4.28;;;11.30;99.90;;;;;;4995468;28;20038;-73
2022/06/02 00:41:23;;;;;;;7.22;4.55;;;11.30;99.90;;;;;;4977872;28;20109;-73
2022/06/02 00:43:58;;;;;;;5.50;4.43;;;11.20;99.90;;;;;;4987265;28;20499;-73
2022/06/02 00:46:33;;;;;;;6.60;5.18;;;11.30;99.90;;;;;;4982093;28;20054;-73
2022/06/02 00:49:19;;;;;;;7.00;4.85;;;11.20;99.90;;;;;;4981923;28;20027;-73
2022/06/02 00:52:08;;;;;;;7.53;5.28;;;11.20;99.90;;;;;;4988237;28;20045;-73
2022/06/02 00:58:15;;;;;;;7.93;4.80;;;11.20;99.90;;;;;;4986489;28;20030;-73
2022/06/02 01:00:49;;;;;;;6.55;5.13;;;11.20;99.90;;;;;;4963749;28;20058;-73
2022/06/02 01:03:23;;;;;;;6.45;5.57;;;11.10;99.90;;;;;;4984786;28;20030;-73
2022/06/02 01:06:10;;;;;;;10.18;6.50;;;11.10;99.90;;;;;;4984973;28;20430;-73
2022/06/02 01:09:01;;;;;;;9.63;5.85;;;11.10;99.90;;;;;;4982484;28;20125;-73
2022/06/02 01:11:41;;;;;;;6.63;5.70;;;11.00;99.90;;;;;;4980690;28;20080;-73
2022/06/02 01:14:25;;;;;;;6.78;5.32;;;11.00;99.90;;;;;;4985059;28;20042;-73
2022/06/02 01:17:02;;;;;;;7.90;6.38;;;10.90;99.90;;;;;;4982116;28;20034;-73
2022/06/02 01:19:36;;;;;;;8.77;6.30;;;10.90;99.90;;;;;;4990038;28;20046;-73
2022/06/02 01:22:29;;;;;;;6.88;5.65;;;10.90;99.90;;;;;;4974456;28;20030;-73
2022/06/02 01:25:10;;;;;;;7.32;5.97;;;10.90;99.90;;;;;;4977211;28;20035;-73
2022/06/02 01:28:01;;;;;;;7.72;6.32;;;10.80;99.90;;;;;;4982418;28;20394;-73
2022/06/02 01:30:37;;;;;;;7.03;5.45;;;10.80;99.90;;;;;;4982750;28;20026;-73
2022/06/02 01:33:21;;;;;;;6.88;5.53;;;10.80;99.90;;;;;;4986211;28;20023;-73
2022/06/02 01:35:53;;;;;;;7.40;6.40;;;10.80;99.90;;;;;;4981559;28;20182;-73
2022/06/02 01:38:41;;;;;;;7.28;6.30;;;10.70;99.90;;;;;;4983526;28;20034;-73
2022/06/02 01:41:25;;;;;;;7.20;6.18;;;10.70;99.90;;;;;;4981832;28;20022;-73
2022/06/02 01:44:36;;;;;;;7.38;6.18;;;10.70;99.90;;;;;;4983717;28;20018;-73
2022/06/02 01:47:05;;;;;;;;;;;10.60;99.90;;;;;;4977243;28;20502;-74
2022/06/02 01:49:43;;;;;;;9.73;6.40;;;10.60;99.90;;;;;;4986416;28;19910;-73
2022/06/02 01:52:18;;;;;;;6.68;5.70;;;10.60;99.90;;;;;;4996065;28;21577;-73
2022/06/02 01:55:19;;;;;;;6.25;5.28;;;10.60;99.90;;;;;;4994852;28;20498;-73
2022/06/02 01:57:57;;;;;;;7.70;6.22;;;10.60;99.90;;;;;;4983054;28;20074;-73
2022/06/02 02:00:26;;;;;;;9.10;6.20;;;10.60;99.90;;;;;;4984735;28;20026;-73
2022/06/02 02:03:12;;;;;;;10.90;6.95;;;10.50;99.90;;;;;;4983798;28;20089;-73
2022/06/02 02:05:53;;;;;;;7.88;5.30;;;10.50;99.90;;;;;;4981739;28;20445;-73
2022/06/02 02:08:42;;;;;;;6.88;5.53;;;10.50;99.90;;;;;;4984788;28;20141;-72
2022/06/02 02:11:17;;;;;;;7.32;5.55;;;10.50;99.90;;;;;;4986908;28;20034;-72
2022/06/02 02:14:10;;;;;;;8.38;6.45;;;10.50;99.90;;;;;;4982544;28;20082;-72
2022/06/02 02:17:02;;;;;;;7.15;5.82;;;10.40;99.90;;;;;;4975370;28;20089;-72
2022/06/02 02:19:38;;;;;;;7.10;6.00;;;10.40;99.90;;;;;;4982475;28;20117;-73
2022/06/02 02:22:26;;;;;;;8.52;6.22;;;10.40;99.90;;;;;;4979369;28;20040;-73
2022/06/02 02:25:01;;;;;;;7.82;6.28;;;10.40;99.90;;;;;;4978243;28;20041;-73
2022/06/02 02:28:03;;;;;;;6.47;5.82;;;10.50;99.90;;;;;;4982657;28;20494;-73
2022/06/02 02:30:45;;;;;;;8.10;6.38;;;10.50;99.90;;;;;;4982726;28;20061;-73
2022/06/02 02:33:29;;;;;;;;;;;10.50;99.90;;;;;;4980692;28;20030;-74
2022/06/02 02:36:18;;;;;;;7.53;5.70;;;10.40;99.90;;;;;;4975296;28;19924;-74
2022/06/02 02:39:18;;;;;;;7.00;5.95;;;10.40;99.90;;;;;;4980443;28;20534;-73
2022/06/02 02:42:05;;;;;;;7.22;5.75;;;10.40;99.90;;;;;;4982148;28;20030;-74
2022/06/02 02:44:34;;;;;;;8.10;6.45;;;10.40;99.90;;;;;;4980006;28;20394;-73
2022/06/02 02:47:23;;;;;;;9.18;7.13;;;10.30;99.90;;;;;;4997208;28;20045;-73
2022/06/02 02:49:59;;;;;;;7.30;6.45;;;10.30;99.90;;;;;;4984525;28;20062;-74
2022/06/02 02:52:27;;;;;;;6.63;5.85;;;10.30;99.90;;;;;;4980346;28;20055;-73
2022/06/02 02:55:08;;;;;;;9.30;6.70;;;10.20;99.90;;;;;;4973145;28;20494;-73
2022/06/02 02:57:56;;;;;;;8.00;6.68;;;10.20;99.90;;;;;;4970491;28;20484;-74
2022/06/02 03:00:51;;;;;;;8.65;6.88;;;10.20;99.90;;;;;;4980575;28;20077;-73
2022/06/02 03:03:25;;;;;;;8.98;6.47;;;10.20;99.90;;;;;;4982324;28;20034;-74
2022/06/02 03:06:09;;;;;;;7.55;6.70;;;10.20;99.90;;;;;;4982443;28;20034;-74
2022/06/02 03:09:22;;;;;;;9.77;6.95;;;10.20;99.90;;;;;;4980920;28;20035;-73
2022/06/02 03:12:08;;;;;;;8.45;7.03;;;10.20;99.90;;;;;;4982995;28;20117;-74
2022/06/02 03:14:43;;;;;;;9.27;6.82;;;10.20;99.90;;;;;;4981360;28;20046;-74
2022/06/02 03:17:30;;;;;;;10.27;6.95;;;10.10;99.90;;;;;;4977627;28;20034;-73
2022/06/02 03:20:08;;;;;;;7.57;6.32;;;10.10;99.90;;;;;;4982669;28;20031;-73
2022/06/02 03:23:11;;;;;;;9.27;6.90;;;10.10;99.90;;;;;;4982595;28;20026;-74
2022/06/02 03:25:49;;;;;;;7.60;6.53;;;10.10;99.90;;;;;;4980839;28;20379;-73
2022/06/02 03:28:20;;;;;;;11.30;7.10;;;10.20;99.90;;;;;;4978312;28;20090;-73
2022/06/02 03:30:57;;;;;;;10.02;7.35;;;10.20;99.90;;;;;;4981593;28;20034;-74
2022/06/02 03:33:42;;;;;;;9.52;7.47;;;10.20;99.90;;;;;;4981441;28;20027;-73
2022/06/02 03:36:18;;;;;;;10.35;8.68;;;10.20;99.90;;;;;;4980843;28;20109;-73
2022/06/02 03:38:52;;;;;;;9.52;8.50;;;10.20;99.90;;;;;;4982017;28;20524;-73
2022/06/02 03:41:33;;;;;;;11.77;8.57;;;10.20;99.90;;;;;;4981147;28;20144;-74
2022/06/02 03:44:20;;;;;;;10.50;8.73;;;10.20;99.90;;;;;;4981842;28;20060;-73
2022/06/02 03:47:12;;;;;;;11.13;8.45;;;10.30;99.90;;;;;;4929323;28;20282;-73
2022/06/02 03:49:49;;;;;;;15.23;10.55;;;10.30;99.90;;;;;;4931887;28;20027;-74
2022/06/02 03:52:49;;;;;;;13.30;9.15;;;10.30;99.90;;;;;;4945446;28;20038;-73
2022/06/02 03:55:32;;;;;;;12.77;9.43;;;10.30;99.90;;;;;;4947607;28;20038;-73
2022/06/02 03:58:50;;;;;;;10.20;8.07;;;10.30;99.90;;;;;;4953998;28;20041;-73
2022/06/02 04:01:24;;;;;;;12.48;8.68;;;10.20;99.90;;;;;;4932822;28;20522;-73
2022/06/02 04:03:50;;;;;;;13.52;9.57;;;10.30;99.90;;;;;;4961714;28;20076;-73
2022/06/02 04:06:30;;;;;;;10.57;8.90;;;10.30;99.90;;;;;;4957979;28;20124;-73
2022/06/02 04:09:14;;;;;;;12.65;8.82;;;10.30;99.90;;;;;;4962155;28;20035;-73
2022/06/02 04:15:09;;;;;;;11.90;9.20;;;10.40;99.90;;;;;;4960750;28;20070;-73
2022/06/02 04:17:47;;;;;;;13.85;11.13;;;10.40;99.90;;;;;;4957722;28;20131;-73
2022/06/02 04:20:49;;;;;;;13.43;10.73;;;10.30;99.90;;;;;;4940771;28;20074;-72
2022/06/02 04:23:47;;;;;;;15.73;11.27;;;10.40;99.90;;;;;;4947045;28;20047;-72
2022/06/02 04:26:40;;;;;;;14.10;11.25;;;10.40;99.90;;;;;;4978593;28;20077;-72
2022/06/02 04:29:27;;;;;;;14.13;10.50;;;10.40;99.90;;;;;;4990544;28;20170;-73
2022/06/02 04:32:18;;;;;;;14.88;10.32;;;10.40;99.90;;;;;;4976458;28;20030;-73
2022/06/02 04:34:55;;;;;;;12.20;9.02;;;10.50;99.90;;;;;;4977317;28;20041;-73
2022/06/02 04:37:50;;;;;;;13.38;9.30;;;10.50;99.90;;;;;;4979356;28;20043;-74
2022/06/02 04:40:53;;;;;;;13.27;10.13;;;10.60;99.90;;;;;;4979556;28;20042;-73
2022/06/02 04:43:31;;;;;;;12.05;9.48;;;10.70;99.90;;;;;;4992814;28;20085;-74
2022/06/02 04:46:34;;;;;;;13.82;9.75;;;10.80;99.90;;;;;;4977962;28;20034;-74
2022/06/02 04:49:14;;;;;;;15.05;10.95;;;10.90;99.90;;;;;;4974312;28;20113;-74
2022/06/02 04:51:43;;;;;;;15.60;10.48;;;11.00;99.90;;;;;;4980159;28;20109;-73
2022/06/02 04:54:33;;;;;;;15.75;10.52;;;11.10;99.90;;;;;;4980325;28;20054;-73
2022/06/02 04:57:21;;;;;;;12.25;9.30;;;11.10;99.90;;;;;;4984490;28;20034;-73
2022/06/02 05:00:19;;;;;;;13.70;9.60;;;11.20;99.90;;;;;;4969232;28;20043;-73
2022/06/02 05:03:12;;;;;;;13.90;9.45;;;11.30;99.90;;;;;;4959704;28;20038;-77
2022/06/02 05:05:54;;;;;;;13.02;9.48;;;11.30;99.90;;;;;;4977920;28;20114;-73
2022/06/02 05:08:20;;;;;;;12.45;8.75;;;11.30;99.90;;;;;;4979871;28;20096;-73
2022/06/02 05:11:12;;;;;;;11.98;9.13;;;11.40;99.90;;;;;;4975773;28;21787;-73
2022/06/02 05:14:00;;;;;;;10.70;8.45;;;11.40;99.90;;;;;;4982329;28;20109;-74
2022/06/02 05:16:44;;;;;;;10.63;8.55;;;11.50;99.90;;;;;;4986117;28;20034;-72
2022/06/02 05:19:29;;;;;;;12.40;8.88;;;11.50;99.90;;;;;;4973742;28;20121;-73
2022/06/02 05:21:55;;;;;;;9.52;7.75;;;11.50;99.90;;;;;;4976027;28;20074;-73
2022/06/02 05:24:48;;;;;;;9.93;7.97;;;11.40;99.90;;;;;;4972361;28;20054;-72
2022/06/02 05:27:24;;;;;;;10.90;7.60;;;11.50;99.90;;;;;;4982445;28;20494;-73
2022/06/02 05:30:27;;;;;;;10.60;7.78;;;11.50;99.90;;;;;;4979984;28;20061;-73
2022/06/02 05:33:18;;;;;;;9.50;7.55;;;11.60;99.90;;;;;;4979202;28;20444;-73
2022/06/02 05:36:22;;;;;;;8.32;6.80;;;11.70;99.90;;;;;;4980923;28;20045;-72
2022/06/02 05:38:58;;;;;;;12.57;6.88;;;11.70;99.90;;;;;;4976750;28;20023;-72
2022/06/02 05:41:42;;;;;;;9.88;6.32;;;11.70;99.90;;;;;;4975647;28;20057;-73
2022/06/02 05:44:26;;;;;;;9.63;6.95;;;11.80;99.90;;;;;;4975048;28;20390;-73
2022/06/02 05:47:01;;;;;;;8.07;6.35;;;11.80;99.90;;;;;;4970767;28;20033;-73
2022/06/02 05:49:29;;;;;;;10.52;6.70;;;11.90;99.90;;;;;;4978071;28;20022;-73
2022/06/02 05:52:15;;;;;;;9.90;7.80;;;12.00;99.90;;;;;;4988874;28;20038;-73
2022/06/02 05:55:10;;;;;;;9.45;7.00;;;12.10;99.90;;;;;;4985283;28;20038;-71
2022/06/02 05:57:57;;;;;;;13.27;6.75;;;12.10;99.90;;;;;;4988259;28;20367;-73
2022/06/02 06:00:35;;;;;;;7.97;6.35;;;12.00;99.90;;;;;;4970953;28;20076;-73
2022/06/02 06:03:16;;;;;;;9.75;6.35;;;12.10;99.90;;;;;;4982550;28;20038;-73
2022/06/02 06:05:46;;;;;;;10.98;7.00;;;12.10;99.90;;;;;;4982108;28;20029;-73
2022/06/02 06:08:29;;;;;;;8.60;6.82;;;12.20;99.90;;;;;;4983304;28;20026;-72
2022/06/02 06:11:17;;;;;;;9.18;6.00;;;12.20;99.90;;;;;;4985714;28;20061;-73
2022/06/02 06:14:08;;;;;;;9.45;5.97;;;12.30;99.90;;;;;;4978604;28;20031;-73
2022/06/02 06:16:39;;;;;;;;;;;12.30;99.90;;;;;;4973038;28;20093;-75
2022/06/02 06:19:27;;;;;;;8.15;5.82;;;12.30;99.90;;;;;;4974875;28;19956;-76
2022/06/02 06:22:32;;;;;;;8.63;6.03;;;12.30;99.90;;;;;;4985400;28;20034;-73
2022/06/02 06:25:19;;;;;;;8.32;5.63;;;12.40;99.90;;;;;;4980457;28;20042;-73
2022/06/02 06:28:06;;;;;;;8.55;5.75;;;12.50;99.90;;;;;;4971354;28;20037;-72
2022/06/02 06:30:35;;;;;;;6.60;5.10;;;12.50;99.90;;;;;;4982490;28;20084;-73
2022/06/02 06:33:13;;;;;;;10.43;5.13;;;12.60;99.90;;;;;;4984726;28;20041;-73
2022/06/02 06:35:54;;;;;;;6.55;4.47;;;12.60;99.90;;;;;;4982891;28;20041;-73
2022/06/02 06:38:22;;;;;;;6.53;4.97;;;12.80;99.90;;;;;;4979879;28;20114;-74
2022/06/02 06:41:14;;;;;;;6.07;4.78;;;12.80;99.90;;;;;;4973616;28;20700;-73
2022/06/02 06:43:46;;;;;;;6.20;4.10;;;12.90;99.90;;;;;;4987457;28;20038;-73
2022/06/02 06:46:26;;;;;;;6.13;5.07;;;13.00;99.90;;;;;;5001457;28;20060;-74
2022/06/02 06:49:00;;;;;;;5.90;4.72;;;13.10;99.90;;;;;;4984696;28;20066;-72
2022/06/02 06:51:54;;;;;;;8.35;4.47;;;13.10;99.90;;;;;;4992642;28;20023;-73
2022/06/02 06:55:00;;;;;;;5.25;4.20;;;13.20;99.90;;;;;;4967021;28;20031;-74
2022/06/02 06:57:48;;;;;;;6.32;4.25;;;13.30;99.90;;;;;;4990957;28;20034;-73
2022/06/02 07:00:26;;;;;;;5.00;3.78;;;13.30;99.90;;;;;;4985136;28;20031;-73
2022/06/02 07:03:24;;;;;;;6.88;3.40;;;13.30;99.90;;;;;;4981003;28;20027;-74
2022/06/02 07:06:02;;;;;;;7.32;4.55;;;13.40;99.90;;;;;;4985860;28;20590;-73
2022/06/02 07:08:41;;;;;;;7.20;4.03;;;13.30;99.90;;;;;;4985735;28;20506;-74
2022/06/02 07:14:26;;;;;;;6.18;4.43;;;13.20;99.90;;;;;;4981814;28;20026;-74
2022/06/02 07:16:56;;;;;;;6.95;4.07;;;13.30;99.90;;;;;;4986220;28;20031;-73
2022/06/02 07:19:29;;;;;;;6.97;4.90;;;13.30;99.90;;;;;;4986451;28;20516;-73
2022/06/02 07:22:05;;;;;;;5.68;4.03;;;13.20;99.90;;;;;;4980278;28;20034;-73
2022/06/02 07:24:52;;;;;;;8.55;5.70;;;13.20;99.90;;;;;;4976216;28;20027;-74
2022/06/02 07:27:21;;;;;;;5.30;3.88;;;13.20;99.90;;;;;;4983221;28;20045;-73
2022/06/02 07:30:32;;;;;;;5.43;3.85;;;13.20;99.90;;;;;;4981781;28;20128;-73
2022/06/02 07:33:35;;;;;;;11.30;4.00;;;13.20;99.90;;;;;;4981365;28;20027;-73
2022/06/02 07:36:06;;;;;;;6.25;3.60;;;13.20;99.90;;;;;;4986034;28;20027;-73
2022/06/02 07:38:51;;;;;;;7.00;3.97;;;13.20;99.90;;;;;;4984742;28;20034;-73
2022/06/02 07:41:45;;;;;;;5.63;3.95;;;13.10;99.90;;;;;;4977771;28;20040;-73
2022/06/02 07:44:36;;;;;;;5.85;3.92;;;13.20;99.90;;;;;;4988350;28;20081;-73
2022/06/02 07:47:40;;;;;;;5.72;3.35;;;13.20;99.90;;;;;;4986259;28;20045;-73
2022/06/02 07:50:30;;;;;;;5.55;4.10;;;13.20;99.90;;;;;;4983577;28;20065;-74
2022/06/02 07:53:08;;;;;;;5.47;3.63;;;13.30;99.90;;;;;;4985531;28;20034;-74
2022/06/02 07:55:39;;;;;;;6.93;4.72;;;13.30;99.90;;;;;;4981396;28;20447;-73
2022/06/02 07:58:24;;;;;;;5.28;3.65;;;13.30;99.90;;;;;;4991529;28;20038;-75
2022/06/02 08:01:05;;;;;;;4.93;3.90;;;13.30;99.90;;;;;;4974840;28;20027;-73
2022/06/02 08:03:50;;;;;;;5.43;3.63;;;13.10;99.90;;;;;;4983069;28;20018;-73
2022/06/02 08:06:38;;;;;;;4.85;3.33;;;13.10;99.90;;;;;;5003320;28;20525;-73
2022/06/02 08:09:22;;;;;;;5.20;3.17;;;13.00;99.90;;;;;;4978661;28;20037;-73
2022/06/02 08:12:24;;;;;;;5.20;3.55;;;13.00;99.90;;;;;;4994080;28;20031;-73
2022/06/02 08:15:13;;;;;;;8.30;3.53;;;13.00;99.90;;;;;;4968465;28;20034;-73
2022/06/02 08:17:55;;;;;;;8.27;3.90;;;13.00;99.90;;;;;;4973387;28;20040;-73
2022/06/02 08:20:54;;;;;;;5.60;3.38;;;13.10;99.90;;;;;;4957598;28;21390;-73
2022/06/02 08:23:44;;;;;;;6.25;3.55;;;13.10;99.90;;;;;;4979429;28;20609;-72
2022/06/02 08:26:15;;;;;;;4.82;3.25;;;13.20;99.90;;;;;;4971546;28;20030;-72
2022/06/02 08:29:05;;;;;;;5.18;3.10;;;13.40;99.90;;;;;;4983418;28;20037;-73
2022/06/02 08:31:57;;;;;;;8.55;3.05;;;13.50;99.90;;;;;;4987340;28;20034;-73
2022/06/02 08:35:06;;;;;;;4.88;2.88;;;13.50;99.90;;;;;;4980954;28;20034;-73
2022/06/02 08:38:03;;;;;;;7.50;4.07;;;13.60;99.90;;;;;;4973504;28;20042;-74
2022/06/02 08:40:40;;;;;;;6.70;2.83;;;13.60;99.90;;;;;;4972994;28;20035;-73
2022/06/02 08:43:09;;;;;;;5.20;2.28;;;13.60;99.90;;;;;;4985587;28;20495;-73
2022/06/02 08:46:13;;;;;;;11.48;3.30;;;13.60;99.90;;;;;;4970632;28;20038;-74
2022/06/02 08:49:14;;;;;;;6.72;2.90;;;13.80;99.90;;;;;;4985548;28;20022;-73
2022/06/02 08:51:58;;;;;;;6.22;2.85;;;13.90;99.90;;;;;;4980314;28;20058;-73
2022/06/02 08:55:12;;;;;;;4.75;2.80;;;14.00;99.90;;;;;;4983175;28;20494;-74
2022/06/02 08:57:50;;;;;;;6.88;3.00;;;14.30;99.90;;;;;;4983491;28;20569;-73
2022/06/02 09:00:25;;;;;;;4.53;2.50;;;14.40;99.90;;;;;;4983345;28;20058;-73
2022/06/02 09:03:21;;;;;;;8.05;2.83;;;14.60;99.90;;;;;;4980448;28;20184;-73
2022/06/02 09:06:18;;;;;;;5.63;2.22;;;14.80;99.90;;;;;;4987226;28;20430;-75
2022/06/02 09:08:58;;;;;;;4.50;2.53;;;14.80;99.90;;;;;;4989806;28;20095;-73
2022/06/02 09:11:44;;;;;;;5.90;2.08;;;14.80;99.90;;;;;;4988901;28;20030;-73
2022/06/02 09:14:22;;;;;;;6.38;2.20;;;14.80;99.90;;;;;;4993353;28;20023;-74
2022/06/02 09:17:07;;;;;;;5.78;2.30;;;14.90;99.90;;;;;;4983320;28;20034;-74
2022/06/02 09:20:07;;;;;;;5.53;1.92;;;15.00;99.90;;;;;;5003531;28;20102;-74
2022/06/02 09:22:36;;;;;;;5.35;2.17;;;15.10;99.90;;;;;;4989925;28;20031;-74
2022/06/02 09:25:41;;;;;;;6.65;2.42;;;15.10;99.90;;;;;;4988285;28;20040;-74
2022/06/02 09:28:32;;;;;;;4.90;2.53;;;15.10;99.90;;;;;;4988679;28;20027;-74
2022/06/02 09:31:10;;;;;;;3.10;2.10;;;15.00;99.90;;;;;;4971902;28;20494;-74
2022/06/02 09:33:56;;;;;;;5.28;2.05;;;14.90;99.90;;;;;;4984928;28;20498;-73
2022/06/02 09:36:52;;;;;;;4.93;2.40;;;14.80;99.90;;;;;;4990696;28;20072;-73
2022/06/02 09:39:54;;;;;;;5.13;2.03;;;14.80;99.90;;;;;;4985972;28;20396;-73
2022/06/02 09:43:05;;;;;;;3.95;2.17;;;14.70;99.90;;;;;;4988467;28;20029;-73
2022/06/02 09:45:40;;;;;;;4.32;2.25;;;14.60;99.90;;;;;;4983831;28;20037;-74
2022/06/02 09:48:34;;;;;;;4.75;2.25;;;14.50;99.90;;;;;;4991268;28;20398;-73
2022/06/02 09:51:25;;;;;;;5.10;2.10;;;14.50;99.90;;;;;;4986374;28;20034;-73
2022/06/02 09:54:00;;;;;;;3.60;1.98;;;14.50;99.90;;;;;;4984327;28;20030;-74
2022/06/02 09:57:00;;;;;;;4.57;2.38;;;14.50;99.90;;;;;;4983622;28;20109;-73
2022/06/02 09:59:28;;;;;;;306.45;217.60;;;14.70;99.90;;;;;;4984259;28;20033;-74
2022/06/02 10:02:29;;;;;;;104.82;58.30;;;14.70;99.90;;;;;;4967748;28;20022;-74
2022/06/02 10:05:06;;;;;;;86.90;57.92;;;14.70;99.90;;;;;;4980591;28;20109;-74
2022/06/02 10:08:10;;;;;;;31.10;27.83;;;14.70;99.90;;;;;;4983095;28;20034;-73
2022/06/02 10:11:00;;;;;;;9.23;3.42;;;14.60;99.90;;;;;;4984130;28;20042;-74
2022/06/02 10:14:06;;;;;;;6.63;2.40;;;14.50;99.90;;;;;;4970222;28;20034;-74
2022/06/02 10:16:54;;;;;;;6.25;2.50;;;14.50;99.90;;;;;;4979726;28;20057;-73
2022/06/02 10:19:53;;;;;;;5.95;2.60;;;14.40;99.90;;;;;;4988420;28;20014;-75
2022/06/02 10:22:55;;;;;;;5.38;2.60;;;14.50;99.90;;;;;;4986544;28;20022;-74
2022/06/02 10:25:43;;;;;;;4.88;2.28;;;14.60;99.90;;;;;;4991548;28;20546;-73
2022/06/02 10:28:55;;;;;;;6.75;2.47;;;14.70;99.90;;;;;;5002533;28;20545;-73
2022/06/02 10:31:55;;;;;;;5.15;2.25;;;14.80;99.90;;;;;;4978700;28;20776;-74
2022/06/02 10:34:33;;;;;;;4.80;2.30;;;15.00;99.90;;;;;;4986356;28;20022;-74
2022/06/02 10:37:22;;;;;;;11.93;2.80;;;15.30;99.90;;;;;;4986412;28;20031;-73
2022/06/02 10:40:01;;;;;;;5.40;2.25;;;15.50;99.90;;;;;;4973530;28;20518;-75
2022/06/02 10:42:46;;;;;;;4.65;2.40;;;15.80;99.90;;;;;;4985851;28;20038;-75
2022/06/02 10:45:38;;;;;;;4.15;2.00;;;15.90;99.90;;;;;;4987636;28;20026;-75
2022/06/02 10:48:23;;;;;;;5.55;2.55;;;15.80;99.90;;;;;;4981404;28;20059;-75
2022/06/02 10:51:11;;;;;;;5.93;2.60;;;15.70;99.90;;;;;;4991151;28;20069;-75
2022/06/02 10:54:08;;;;;;;6.13;2.00;;;15.40;99.90;;;;;;4982798;28;20037;-75
2022/06/02 10:57:11;;;;;;;5.82;2.00;;;15.20;99.90;;;;;;4987161;28;20112;-75
2022/06/02 10:59:52;;;;;;;8.27;2.15;;;15.00;99.90;;;;;;4986075;28;20133;-75
2022/06/02 11:02:54;;;;;;;4.50;2.13;;;14.90;99.90;;;;;;4985184;28;20030;-77
2022/06/02 11:05:39;;;;;;;2.78;1.80;;;14.80;99.90;;;;;;4986934;28;20029;-75
2022/06/02 11:08:26;;;;;;;5.22;2.05;;;14.80;99.90;;;;;;4985987;28;20038;-74
2022/06/02 11:11:11;;;;;;;5.18;2.10;;;14.90;99.90;;;;;;4987583;28;20041;-78
2022/06/02 11:13:39;;;;;;;5.22;2.05;;;15.10;99.90;;;;;;4988243;28;20022;-75
2022/06/02 11:16:25;;;;;;;5.45;1.85;;;15.30;99.90;;;;;;4984510;28;20524;-75
2022/06/02 11:19:19;;;;;;;6.47;2.90;;;15.50;99.90;;;;;;5005054;28;20085;-78
2022/06/02 11:22:23;;;;;;;5.43;2.35;;;15.70;99.90;;;;;;4986316;28;20109;-77
2022/06/02 11:25:20;;;;;;;4.97;2.20;;;15.70;99.90;;;;;;4973226;28;20030;-76
2022/06/02 11:28:24;;;;;;;5.00;2.03;;;15.60;99.90;;;;;;4990282;28;20034;-77
2022/06/02 11:30:59;;;;;;;4.63;2.45;;;15.50;99.90;;;;;;4985056;28;20092;-73
2022/06/02 11:34:06;;;;;;;3.58;1.70;;;15.50;99.90;;;;;;4985899;28;20110;-74
2022/06/02 11:36:38;;;;;;;3.70;1.98;;;15.70;99.90;;;;;;4983463;28;20038;-74
2022/06/02 11:39:22;;;;;;;4.50;1.90;;;15.80;99.90;;;;;;4980735;28;20057;-74
2022/06/02 11:42:20;;;;;;;3.58;2.13;;;15.60;99.90;;;;;;4983420;28;20060;-74
2022/06/02 11:45:14;;;;;;;5.47;1.80;;;15.40;99.90;;;;;;4976980;28;20038;-75
2022/06/02 11:48:09;;;;;;;7.28;2.20;;;15.30;99.90;;;;;;4986553;28;20045;-74
2022/06/02 11:50:53;;;;;;;6.15;2.28;;;15.10;99.90;;;;;;4984679;28;20031;-74
2022/06/02 11:54:04;;;;;;;5.85;1.88;;;14.90;99.90;;;;;;4997333;28;20398;-74
2022/06/02 11:56:39;;;;;;;5.38;2.20;;;14.90;99.90;;;;;;4976535;28;20042;-75
2022/06/02 11:59:19;;;;;;;5.32;2.00;;;14.90;99.90;;;;;;4985088;28;20034;-74
2022/06/02 12:02:01;;;;;;;4.80;2.20;;;15.10;99.90;;;;;;4988232;28;20113;-74
2022/06/02 12:04:48;;;;;;;4.47;2.58;;;15.70;99.90;;;;;;4981766;28;20026;-75
2022/06/02 12:07:49;;;;;;;6.18;2.28;;;16.30;99.90;;;;;;4969781;28;20073;-73
2022/06/02 12:10:43;;;;;;;5.55;2.00;;;17.30;99.90;;;;;;4985523;28;20030;-74
2022/06/02 12:13:34;;;;;;;2.78;1.77;;;18.80;99.90;;;;;;4983160;28;20435;-76
2022/06/02 12:16:19;;;;;;;7.75;1.98;;;19.80;99.90;;;;;;4985434;28;20463;-76
2022/06/02 12:19:33;;;;;;;5.40;2.05;;;20.00;98.90;;;;;;4985876;28;20041;-76
2022/06/02 12:22:04;;;;;;;2.75;1.48;;;19.20;99.90;;;;;;4931171;28;20029;-74
2022/06/02 12:24:49;;;;;;;4.40;1.70;;;18.70;99.90;;;;;;4986083;28;20621;-75
2022/06/02 12:27:30;;;;;;;6.35;2.10;;;18.30;99.90;;;;;;4985972;28;20035;-74
2022/06/02 12:30:49;;;;;;;5.43;1.92;;;17.90;99.90;;;;;;4970511;28;20112;-74
2022/06/02 12:33:47;;;;;;;5.57;2.63;;;17.80;99.90;;;;;;4965607;28;20053;-75
2022/06/02 12:36:30;;;;;;;8.25;2.10;;;18.00;99.90;;;;;;4910851;28;20084;-75
2022/06/02 12:39:18;;;;;;;4.15;1.77;;;19.40;99.90;;;;;;4988532;28;20030;-75
2022/06/02 12:42:02;;;;;;;3.95;1.80;;;20.40;99.30;;;;;;4990744;28;20076;-75
2022/06/02 12:45:10;;;;;;;5.65;2.25;;;20.60;98.20;;;;;;4989972;28;20029;-75
2022/06/02 12:48:03;;;;;;;6.95;2.13;;;20.90;98.20;;;;;;4991361;28;20482;-75
2022/06/02 12:51:20;;;;;;;4.10;1.58;;;22.20;94.80;;;;;;4987159;28;20050;-76
2022/06/02 12:54:13;;;;;;;4.15;1.90;;;23.70;92.30;;;;;;4968046;28;20541;-75
2022/06/02 12:57:13;;;;;;;3.90;1.35;;;24.20;86.00;;;;;;4966519;28;20441;-75
2022/06/02 12:59:47;;;;;;;3.55;1.70;;;23.40;82.50;;;;;;4966998;28;20066;-76
2022/06/02 13:03:05;;;;;;;4.57;1.52;;;22.30;83.70;;;;;;4965453;28;20886;-75
2022/06/02 13:06:12;;;;;;;4.53;1.85;;;21.10;87.60;;;;;;4963873;28;20050;-74
2022/06/02 13:08:40;;;;;;;3.97;1.70;;;20.00;92.80;;;;;;4923401;28;20042;-74
2022/06/02 13:11:17;;;;;;;6.18;2.03;;;19.80;97.80;;;;;;4960822;28;20426;-75
2022/06/02 13:13:49;;;;;;;6.95;2.38;;;21.00;96.40;;;;;;4958655;28;20039;-75
2022/06/02 13:16:20;;;;;;;3.45;1.30;;;21.40;92.70;;;;;;4960353;28;20707;-76
2022/06/02 13:19:01;;;;;;;5.55;1.52;;;22.70;92.00;;;;;;4953988;28;20042;-75
2022/06/02 13:21:39;;;;;;;;;;;23.30;85.00;;;;;;4946474;28;20073;-75
2022/06/02 13:24:23;;;;;;;4.68;1.75;;;24.30;80.70;;;;;;4955794;28;19936;-75
2022/06/02 13:27:07;;;;;;;7.35;2.05;;;26.10;70.70;;;;;;4946256;28;20502;-74
2022/06/02 13:29:59;;;;;;;4.40;1.63;;;26.10;64.70;;;;;;4974310;28;20054;-75
2022/06/02 13:32:40;;;;;;;2.28;1.17;;;25.20;66.70;;;;;;4984671;28;20042;-75
2022/06/02 13:36:00;;;;;;;2.55;1.08;;;25.50;68.30;;;;;;4974665;28;20045;-76
2022/06/02 13:38:35;;;;;;;3.22;1.30;;;27.60;64.70;;;;;;4984290;28;20038;-74
2022/06/02 13:41:19;;;;;;;5.57;1.33;;;29.10;57.00;;;;;;4981280;28;20034;-75
2022/06/02 13:44:29;;;;;;;5.28;1.20;;;29.40;54.10;;;;;;4988317;28;20058;-75
2022/06/02 13:47:32;;;;;;;3.28;1.27;;;30.00;47.80;;;;;;4961515;28;20030;-75
2022/06/02 13:50:20;;;;;;;4.80;1.45;;;28.10;51.10;;;;;;4984429;28;20383;-74
2022/06/02 13:53:01;;;;;;;5.45;1.45;;;26.10;54.30;;;;;;4984406;28;20097;-75
2022/06/02 13:59:15;;;;;;;8.65;4.68;;;28.00;51.60;;;;;;4987840;28;20391;-75
2022/06/02 14:01:47;;;;;;;32.13;24.17;;;29.60;49.70;;;;;;4986820;28;20022;-74
2022/06/02 14:04:18;;;;;;;13.07;8.77;;;28.90;51.50;;;;;;4987551;28;20027;-74
2022/06/02 14:07:10;;;;;;;2.88;1.50;;;27.90;51.00;;;;;;4987860;28;20022;-73
2022/06/02 14:09:56;;;;;;;2.85;1.38;;;28.50;52.10;;;;;;4986897;28;20038;-74
2022/06/02 14:12:45;;;;;;;2.30;1.30;;;28.70;48.00;;;;;;4983310;28;20030;-73
2022/06/02 14:15:30;;;;;;;3.30;1.20;;;28.40;51.40;;;;;;4960687;28;20054;-72
2022/06/02 14:18:08;;;;;;;4.70;1.42;;;27.60;50.00;;;;;;4985792;28;20560;-75
2022/06/02 14:20:51;;;;;;;5.10;1.40;;;27.10;52.90;;;;;;4984608;28;20496;-77
2022/06/02 14:23:34;;;;;;;4.53;1.42;;;26.80;49.20;;;;;;4979793;28;20036;-75
2022/06/02 14:26:27;;;;;;;4.13;1.52;;;25.90;53.20;;;;;;4984834;28;20026;-72
2022/06/02 14:29:10;;;;;;;4.75;1.30;;;27.40;50.30;;;;;;4982693;28;20050;-73
2022/06/02 14:31:55;;;;;;;3.97;1.60;;;27.30;50.40;;;;;;4987863;28;20026;-73
2022/06/02 14:34:31;;;;;;;3.45;1.17;;;28.20;49.30;;;;;;4987545;28;20312;-73
2022/06/02 14:37:20;;;;;;;8.07;1.98;;;28.90;47.90;;;;;;4985578;28;20042;-74